sensor_id;sensor_type;location;lat;lon;timestamp;temperature;humidity
39017;DHT22;24784;45.582;5.276;2022-12-18T00:00:44;-1.00;99.90
39017;DHT22;24784;45.582;5.276;2022-12-18T00:03:10;-0.90;99.90
39017;DHT22;24784;45.582;5.276;2022-12-18T00:05:36;-0.90;99.90
39017;DHT22;24784;45.582;5.276;2022-12-18T00:08:02;-0.90;99.90
39017;DHT22;24784;45.582;5.276;2022-12-18T00:10:28;-0.90;99.90
39017;DHT22;24784;45.582;5.276;2022-12-18T00:12:54;-0.90;99.90
39017;DHT22;24784;45.582;5.276;2022-12-18T00:15:20;-0.90;99.90
39017;DHT22;24784;45.582;5.276;2022-12-18T00:17:46;-0.90;99.90
39017;DHT22;24784;45.582;5.276;2022-12-18T00:20:12;-0.90;99.90
39017;DHT22;24784;45.582;5.276;2022-12-18T00:22:38;-0.90;99.90
39017;DHT22;24784;45.582;5.276;2022-12-18T00:25:04;-0.90;99.90
39017;DHT22;24784;45.582;5.276;2022-12-18T00:27:29;-0.90;99.90
39017;DHT22;24784;45.582;5.276;2022-12-18T00:29:55;-1.00;99.90
39017;DHT22;24784;45.582;5.276;2022-12-18T00:32:21;-1.00;99.90
39017;DHT22;24784;45.582;5.276;2022-12-18T00:34:47;-1.00;99.90
39017;DHT22;24784;45.582;5.276;2022-12-18T00:37:12;-1.10;99.90
39017;DHT22;24784;45.582;5.276;2022-12-18T00:39:38;-1.10;99.90
39017;DHT22;24784;45.582;5.276;2022-12-18T00:42:04;-1.20;99.90
39017;DHT22;24784;45.582;5.276;2022-12-18T00:44:48;-1.30;99.90
39017;DHT22;24784;45.582;5.276;2022-12-18T00:47:14;-1.20;99.90
39017;DHT22;24784;45.582;5.276;2022-12-18T00:49:40;-1.30;99.90
39017;DHT22;24784;45.582;5.276;2022-12-18T00:52:06;-1.20;99.90
39017;DHT22;24784;45.582;5.276;2022-12-18T00:54:32;-1.30;99.90
39017;DHT22;24784;45.582;5.276;2022-12-18T00:56:57;-1.20;99.90
39017;DHT22;24784;45.582;5.276;2022-12-18T00:59:23;-1.20;99.90
39017;DHT22;24784;45.582;5.276;2022-12-18T01:01:49;-1.20;99.90
39017;DHT22;24784;45.582;5.276;2022-12-18T01:04:15;-1.30;99.90
39017;DHT22;24784;45.582;5.276;2022-12-18T01:06:41;-1.30;99.90
39017;DHT22;24784;45.582;5.276;2022-12-18T01:09:06;-1.40;99.90
39017;DHT22;24784;45.582;5.276;2022-12-18T01:11:32;-1.30;99.90
39017;DHT22;24784;45.582;5.276;2022-12-18T01:13:58;-1.40;99.90
39017;DHT22;24784;45.582;5.276;2022-12-18T01:16:27;-1.40;99.90
39017;DHT22;24784;45.582;5.276;2022-12-18T01:18:53;-1.30;99.90
39017;DHT22;24784;45.582;5.276;2022-12-18T01:21:20;-1.40;99.90
39017;DHT22;24784;45.582;5.276;2022-12-18T01:23:47;-1.60;99.90
39017;DHT22;24784;45.582;5.276;2022-12-18T01:26:16;-1.70;99.90
39017;DHT22;24784;45.582;5.276;2022-12-18T01:28:42;-1.60;99.90
39017;DHT22;24784;45.582;5.276;2022-12-18T01:31:14;-1.60;99.90
39017;DHT22;24784;45.582;5.276;2022-12-18T01:33:40;-1.60;99.90
39017;DHT22;24784;45.582;5.276;2022-12-18T01:36:07;-1.70;99.90
39017;DHT22;24784;45.582;5.276;2022-12-18T01:38:33;-1.60;99.90
39017;DHT22;24784;45.582;5.276;2022-12-18T01:41:00;-1.70;99.90
39017;DHT22;24784;45.582;5.276;2022-12-18T01:43:46;-1.70;99.90
39017;DHT22;24784;45.582;5.276;2022-12-18T01:46:12;-1.70;99.90
39017;DHT22;24784;45.582;5.276;2022-12-18T01:48:39;-1.70;99.90
39017;DHT22;24784;45.582;5.276;2022-12-18T01:51:06;-1.80;99.90
39017;DHT22;24784;45.582;5.276;2022-12-18T01:53:33;-1.80;99.90
39017;DHT22;24784;45.582;5.276;2022-12-18T01:55:59;-1.80;99.90
39017;DHT22;24784;45.582;5.276;2022-12-18T01:58:52;-1.80;99.90
39017;DHT22;24784;45.582;5.276;2022-12-18T02:01:24;-1.80;99.90
39017;DHT22;24784;45.582;5.276;2022-12-18T02:03:50;-1.90;99.90
39017;DHT22;24784;45.582;5.276;2022-12-18T02:06:33;-1.90;99.90
39017;DHT22;24784;45.582;5.276;2022-12-18T02:09:07;-1.80;99.90
39017;DHT22;24784;45.582;5.276;2022-12-18T02:11:51;-1.90;99.90
39017;DHT22;24784;45.582;5.276;2022-12-18T02:28:02;-2.00;99.90
39017;DHT22;24784;45.582;5.276;2022-12-18T02:30:31;-2.00;99.90
39017;DHT22;24784;45.582;5.276;2022-12-18T02:33:01;-1.90;99.90
39017;DHT22;24784;45.582;5.276;2022-12-18T02:35:30;-1.90;99.90
39017;DHT22;24784;45.582;5.276;2022-12-18T02:37:58;-2.10;99.90
39017;DHT22;24784;45.582;5.276;2022-12-18T02:40:26;-2.10;99.90
39017;DHT22;24784;45.582;5.276;2022-12-18T02:42:52;-2.10;99.90
39017;DHT22;24784;45.582;5.276;2022-12-18T02:45:18;-2.10;99.90
39017;DHT22;24784;45.582;5.276;2022-12-18T02:47:47;-2.10;99.90
39017;DHT22;24784;45.582;5.276;2022-12-18T02:55:53;-2.00;99.90
39017;DHT22;24784;45.582;5.276;2022-12-18T03:03:55;-2.00;99.90
39017;DHT22;24784;45.582;5.276;2022-12-18T03:06:30;-2.10;99.90
39017;DHT22;24784;45.582;5.276;2022-12-18T03:09:01;-2.10;99.90
39017;DHT22;24784;45.582;5.276;2022-12-18T03:11:30;-2.10;99.90
39017;DHT22;24784;45.582;5.276;2022-12-18T03:14:17;-2.10;99.90
39017;DHT22;24784;45.582;5.276;2022-12-18T03:16:45;-2.10;99.90
39017;DHT22;24784;45.582;5.276;2022-12-18T03:19:15;-2.10;99.90
39017;DHT22;24784;45.582;5.276;2022-12-18T03:21:52;-2.20;99.90
39017;DHT22;24784;45.582;5.276;2022-12-18T03:24:20;-2.10;99.90
39017;DHT22;24784;45.582;5.276;2022-12-18T03:26:49;-2.20;99.90
39017;DHT22;24784;45.582;5.276;2022-12-18T03:29:24;-2.20;99.90
39017;DHT22;24784;45.582;5.276;2022-12-18T03:31:55;-2.20;99.90
39017;DHT22;24784;45.582;5.276;2022-12-18T03:34:28;-2.10;99.90
39017;DHT22;24784;45.582;5.276;2022-12-18T03:36:55;-2.20;99.90
39017;DHT22;24784;45.582;5.276;2022-12-18T03:39:21;-2.20;99.90
39017;DHT22;24784;45.582;5.276;2022-12-18T03:41:52;-2.20;99.90
39017;DHT22;24784;45.582;5.276;2022-12-18T03:44:35;-2.20;99.90
39017;DHT22;24784;45.582;5.276;2022-12-18T03:52:20;-2.30;99.90
39017;DHT22;24784;45.582;5.276;2022-12-18T03:54:49;-2.30;99.90
39017;DHT22;24784;45.582;5.276;2022-12-18T03:57:22;-2.30;99.90
39017;DHT22;24784;45.582;5.276;2022-12-18T03:59:52;-2.30;99.90
39017;DHT22;24784;45.582;5.276;2022-12-18T04:02:21;-2.30;99.90
39017;DHT22;24784;45.582;5.276;2022-12-18T04:04:53;-2.30;99.90
39017;DHT22;24784;45.582;5.276;2022-12-18T04:07:23;-2.30;99.90
39017;DHT22;24784;45.582;5.276;2022-12-18T04:09:51;-2.30;99.90
39017;DHT22;24784;45.582;5.276;2022-12-18T04:12:18;-2.20;99.90
39017;DHT22;24784;45.582;5.276;2022-12-18T04:14:44;-2.30;99.90
39017;DHT22;24784;45.582;5.276;2022-12-18T04:17:10;-2.20;99.90
39017;DHT22;24784;45.582;5.276;2022-12-18T04:19:36;-2.20;99.90
39017;DHT22;24784;45.582;5.276;2022-12-18T04:22:01;-2.20;99.90
39017;DHT22;24784;45.582;5.276;2022-12-18T04:24:27;-2.20;99.90
39017;DHT22;24784;45.582;5.276;2022-12-18T04:26:53;-2.20;99.90
39017;DHT22;24784;45.582;5.276;2022-12-18T04:29:19;-2.20;99.90
39017;DHT22;24784;45.582;5.276;2022-12-18T04:31:45;-2.20;99.90
39017;DHT22;24784;45.582;5.276;2022-12-18T04:34:10;-2.20;99.90
39017;DHT22;24784;45.582;5.276;2022-12-18T04:36:36;-2.30;99.90
39017;DHT22;24784;45.582;5.276;2022-12-18T04:39:02;-2.30;99.90
39017;DHT22;24784;45.582;5.276;2022-12-18T04:41:28;-2.30;99.90
39017;DHT22;24784;45.582;5.276;2022-12-18T04:43:54;-2.30;99.90
39017;DHT22;24784;45.582;5.276;2022-12-18T04:46:19;-2.30;99.90
39017;DHT22;24784;45.582;5.276;2022-12-18T04:48:46;-2.30;99.90
39017;DHT22;24784;45.582;5.276;2022-12-18T04:51:12;-2.30;99.90
39017;DHT22;24784;45.582;5.276;2022-12-18T04:53:38;-2.40;99.90
39017;DHT22;24784;45.582;5.276;2022-12-18T04:56:09;-2.30;99.90
39017;DHT22;24784;45.582;5.276;2022-12-18T04:58:36;-2.30;99.90
39017;DHT22;24784;45.582;5.276;2022-12-18T05:01:02;-2.30;99.90
39017;DHT22;24784;45.582;5.276;2022-12-18T05:03:29;-2.30;99.90
39017;DHT22;24784;45.582;5.276;2022-12-18T05:05:54;-2.30;99.90
39017;DHT22;24784;45.582;5.276;2022-12-18T05:08:20;-2.20;99.90
39017;DHT22;24784;45.582;5.276;2022-12-18T05:10:46;-2.20;99.90
39017;DHT22;24784;45.582;5.276;2022-12-18T05:13:12;-2.10;99.90
39017;DHT22;24784;45.582;5.276;2022-12-18T05:15:37;-2.00;99.90
39017;DHT22;24784;45.582;5.276;2022-12-18T05:18:04;-2.10;99.90
39017;DHT22;24784;45.582;5.276;2022-12-18T05:20:30;-2.00;99.90
39017;DHT22;24784;45.582;5.276;2022-12-18T05:22:56;-2.10;99.90
39017;DHT22;24784;45.582;5.276;2022-12-18T05:25:23;-2.10;99.90
39017;DHT22;24784;45.582;5.276;2022-12-18T05:27:49;-2.10;99.90
39017;DHT22;24784;45.582;5.276;2022-12-18T05:30:15;-2.10;99.90
39017;DHT22;24784;45.582;5.276;2022-12-18T05:32:42;-2.20;99.90
39017;DHT22;24784;45.582;5.276;2022-12-18T05:35:09;-2.10;99.90
39017;DHT22;24784;45.582;5.276;2022-12-18T05:37:35;-2.20;99.90
39017;DHT22;24784;45.582;5.276;2022-12-18T05:40:02;-2.10;99.90
39017;DHT22;24784;45.582;5.276;2022-12-18T05:42:28;-2.10;99.90
39017;DHT22;24784;45.582;5.276;2022-12-18T05:44:53;-2.10;99.90
39017;DHT22;24784;45.582;5.276;2022-12-18T05:47:19;-2.00;99.90
39017;DHT22;24784;45.582;5.276;2022-12-18T05:49:45;-2.00;99.90
39017;DHT22;24784;45.582;5.276;2022-12-18T05:52:10;-2.00;99.90
39017;DHT22;24784;45.582;5.276;2022-12-18T05:54:36;-2.00;99.90
39017;DHT22;24784;45.582;5.276;2022-12-18T05:57:02;-2.10;99.90
39017;DHT22;24784;45.582;5.276;2022-12-18T05:59:28;-2.10;99.90
39017;DHT22;24784;45.582;5.276;2022-12-18T06:01:53;-2.10;99.90
39017;DHT22;24784;45.582;5.276;2022-12-18T06:04:19;-2.10;99.90
39017;DHT22;24784;45.582;5.276;2022-12-18T06:06:45;-2.10;99.90
39017;DHT22;24784;45.582;5.276;2022-12-18T06:09:10;-2.10;99.90
39017;DHT22;24784;45.582;5.276;2022-12-18T06:11:38;-2.10;99.90
39017;DHT22;24784;45.582;5.276;2022-12-18T06:14:05;-2.10;99.90
39017;DHT22;24784;45.582;5.276;2022-12-18T06:16:31;-2.10;99.90
39017;DHT22;24784;45.582;5.276;2022-12-18T06:19:02;-2.00;99.90
39017;DHT22;24784;45.582;5.276;2022-12-18T06:21:28;-2.00;99.90
39017;DHT22;24784;45.582;5.276;2022-12-18T06:23:54;-2.10;99.90
39017;DHT22;24784;45.582;5.276;2022-12-18T06:26:20;-2.00;99.90
39017;DHT22;24784;45.582;5.276;2022-12-18T06:28:46;-2.00;99.90
39017;DHT22;24784;45.582;5.276;2022-12-18T06:31:12;-2.00;99.90
39017;DHT22;24784;45.582;5.276;2022-12-18T06:33:38;-2.00;99.90
39017;DHT22;24784;45.582;5.276;2022-12-18T06:36:06;-2.00;99.90
39017;DHT22;24784;45.582;5.276;2022-12-18T06:38:34;-2.00;99.90
39017;DHT22;24784;45.582;5.276;2022-12-18T06:41:00;-2.00;99.90
39017;DHT22;24784;45.582;5.276;2022-12-18T06:43:25;-2.00;99.90
39017;DHT22;24784;45.582;5.276;2022-12-18T06:45:57;-2.00;99.90
39017;DHT22;24784;45.582;5.276;2022-12-18T06:48:25;-2.00;99.90
39017;DHT22;24784;45.582;5.276;2022-12-18T06:50:51;-1.90;99.90
39017;DHT22;24784;45.582;5.276;2022-12-18T06:53:16;-1.90;99.90
39017;DHT22;24784;45.582;5.276;2022-12-18T06:55:42;-2.00;99.90
39017;DHT22;24784;45.582;5.276;2022-12-18T06:58:08;-2.00;99.90
39017;DHT22;24784;45.582;5.276;2022-12-18T07:00:35;-2.00;99.90
39017;DHT22;24784;45.582;5.276;2022-12-18T07:03:00;-2.00;99.90
39017;DHT22;24784;45.582;5.276;2022-12-18T07:05:26;-2.00;99.90
39017;DHT22;24784;45.582;5.276;2022-12-18T07:07:52;-2.00;99.90
39017;DHT22;24784;45.582;5.276;2022-12-18T07:10:18;-2.00;99.90
39017;DHT22;24784;45.582;5.276;2022-12-18T07:12:43;-2.00;99.90
39017;DHT22;24784;45.582;5.276;2022-12-18T07:15:09;-2.00;99.90
39017;DHT22;24784;45.582;5.276;2022-12-18T07:17:35;-2.00;99.90
39017;DHT22;24784;45.582;5.276;2022-12-18T07:20:01;-1.90;99.90
39017;DHT22;24784;45.582;5.276;2022-12-18T07:22:26;-2.00;99.90
39017;DHT22;24784;45.582;5.276;2022-12-18T07:24:52;-1.90;99.90
39017;DHT22;24784;45.582;5.276;2022-12-18T07:27:18;-1.90;99.90
39017;DHT22;24784;45.582;5.276;2022-12-18T07:29:44;-1.90;99.90
39017;DHT22;24784;45.582;5.276;2022-12-18T07:32:09;-1.90;99.90
39017;DHT22;24784;45.582;5.276;2022-12-18T07:34:35;-2.00;99.90
39017;DHT22;24784;45.582;5.276;2022-12-18T07:37:01;-1.90;99.90
39017;DHT22;24784;45.582;5.276;2022-12-18T07:39:26;-1.90;99.90
39017;DHT22;24784;45.582;5.276;2022-12-18T07:41:52;-1.80;99.90
39017;DHT22;24784;45.582;5.276;2022-12-18T07:44:38;-1.80;99.90
39017;DHT22;24784;45.582;5.276;2022-12-18T07:47:04;-1.70;99.90
39017;DHT22;24784;45.582;5.276;2022-12-18T07:49:30;-1.70;99.90
39017;DHT22;24784;45.582;5.276;2022-12-18T07:51:56;-1.60;99.90
39017;DHT22;24784;45.582;5.276;2022-12-18T07:54:23;-1.60;99.90
39017;DHT22;24784;45.582;5.276;2022-12-18T07:56:49;-1.60;99.90
39017;DHT22;24784;45.582;5.276;2022-12-18T07:59:15;-1.60;99.90
39017;DHT22;24784;45.582;5.276;2022-12-18T08:01:40;-1.60;99.90
39017;DHT22;24784;45.582;5.276;2022-12-18T08:04:06;-1.60;99.90
39017;DHT22;24784;45.582;5.276;2022-12-18T08:06:32;-1.60;99.90
39017;DHT22;24784;45.582;5.276;2022-12-18T08:08:58;-1.50;99.90
39017;DHT22;24784;45.582;5.276;2022-12-18T08:11:25;-1.50;99.90
39017;DHT22;24784;45.582;5.276;2022-12-18T08:13:51;-1.50;99.90
39017;DHT22;24784;45.582;5.276;2022-12-18T08:16:18;-1.40;99.90
39017;DHT22;24784;45.582;5.276;2022-12-18T08:18:44;-1.40;99.90
39017;DHT22;24784;45.582;5.276;2022-12-18T08:23:38;-1.30;99.90
39017;DHT22;24784;45.582;5.276;2022-12-18T08:26:05;-1.20;99.90
39017;DHT22;24784;45.582;5.276;2022-12-18T08:28:31;-1.20;99.90
39017;DHT22;24784;45.582;5.276;2022-12-18T08:30:56;-1.20;99.90
39017;DHT22;24784;45.582;5.276;2022-12-18T08:33:22;-1.20;99.90
39017;DHT22;24784;45.582;5.276;2022-12-18T08:35:48;-1.20;99.90
39017;DHT22;24784;45.582;5.276;2022-12-18T08:38:13;-1.20;99.90
39017;DHT22;24784;45.582;5.276;2022-12-18T08:40:39;-1.10;99.90
39017;DHT22;24784;45.582;5.276;2022-12-18T08:43:05;-1.10;99.90
39017;DHT22;24784;45.582;5.276;2022-12-18T08:45:49;-1.00;99.90
39017;DHT22;24784;45.582;5.276;2022-12-18T08:48:15;-0.90;99.90
39017;DHT22;24784;45.582;5.276;2022-12-18T08:50:41;-0.90;99.90
39017;DHT22;24784;45.582;5.276;2022-12-18T08:53:06;-0.90;99.90
39017;DHT22;24784;45.582;5.276;2022-12-18T08:55:32;-0.80;99.90
39017;DHT22;24784;45.582;5.276;2022-12-18T08:57:58;-0.80;99.90
39017;DHT22;24784;45.582;5.276;2022-12-18T09:00:23;-0.80;99.90
39017;DHT22;24784;45.582;5.276;2022-12-18T09:02:49;-0.70;99.90
39017;DHT22;24784;45.582;5.276;2022-12-18T09:05:15;-0.70;99.90
39017;DHT22;24784;45.582;5.276;2022-12-18T09:07:40;-0.70;99.90
39017;DHT22;24784;45.582;5.276;2022-12-18T09:10:06;-0.60;99.90
39017;DHT22;24784;45.582;5.276;2022-12-18T09:12:32;-0.60;99.90
39017;DHT22;24784;45.582;5.276;2022-12-18T09:14:58;-0.60;99.90
39017;DHT22;24784;45.582;5.276;2022-12-18T09:17:24;-0.60;99.90
39017;DHT22;24784;45.582;5.276;2022-12-18T09:19:50;-0.60;99.90
39017;DHT22;24784;45.582;5.276;2022-12-18T09:22:16;-0.60;99.90
39017;DHT22;24784;45.582;5.276;2022-12-18T09:24:41;-0.60;99.90
39017;DHT22;24784;45.582;5.276;2022-12-18T09:27:07;-0.60;99.90
39017;DHT22;24784;45.582;5.276;2022-12-18T09:29:33;-0.60;99.90
39017;DHT22;24784;45.582;5.276;2022-12-18T09:31:58;-0.50;99.90
39017;DHT22;24784;45.582;5.276;2022-12-18T09:34:24;-0.40;99.90
39017;DHT22;24784;45.582;5.276;2022-12-18T09:36:50;-0.20;99.90
39017;DHT22;24784;45.582;5.276;2022-12-18T09:39:16;-0.10;99.90
39017;DHT22;24784;45.582;5.276;2022-12-18T09:41:50;0.00;99.90
39017;DHT22;24784;45.582;5.276;2022-12-18T09:46:48;0.20;99.90
39017;DHT22;24784;45.582;5.276;2022-12-18T09:49:18;0.40;99.90
39017;DHT22;24784;45.582;5.276;2022-12-18T09:51:54;0.80;99.90
39017;DHT22;24784;45.582;5.276;2022-12-18T09:54:30;1.20;99.90
39017;DHT22;24784;45.582;5.276;2022-12-18T09:56:58;1.40;99.90
39017;DHT22;24784;45.582;5.276;2022-12-18T09:59:49;1.50;99.90
39017;DHT22;24784;45.582;5.276;2022-12-18T10:02:25;1.80;99.90
39017;DHT22;24784;45.582;5.276;2022-12-18T10:18:48;2.40;99.90
39017;DHT22;24784;45.582;5.276;2022-12-18T10:21:41;2.50;99.90
39017;DHT22;24784;45.582;5.276;2022-12-18T10:27:14;2.70;99.90
39017;DHT22;24784;45.582;5.276;2022-12-18T10:29:44;2.70;99.90
39017;DHT22;24784;45.582;5.276;2022-12-18T10:32:28;2.50;99.90
39017;DHT22;24784;45.582;5.276;2022-12-18T10:34:56;2.50;99.90
39017;DHT22;24784;45.582;5.276;2022-12-18T10:37:25;2.50;99.90
39017;DHT22;24784;45.582;5.276;2022-12-18T10:40:12;2.60;99.90
39017;DHT22;24784;45.582;5.276;2022-12-18T10:42:40;2.90;99.90
39017;DHT22;24784;45.582;5.276;2022-12-18T10:45:12;3.00;99.90
39017;DHT22;24784;45.582;5.276;2022-12-18T10:47:43;3.10;99.90
39017;DHT22;24784;45.582;5.276;2022-12-18T10:52:58;3.20;99.90
39017;DHT22;24784;45.582;5.276;2022-12-18T10:55:30;3.10;99.90
39017;DHT22;24784;45.582;5.276;2022-12-18T10:58:19;3.10;99.90
39017;DHT22;24784;45.582;5.276;2022-12-18T11:06:06;3.60;99.90
39017;DHT22;24784;45.582;5.276;2022-12-18T11:08:33;3.80;99.90
39017;DHT22;24784;45.582;5.276;2022-12-18T11:10:59;3.90;99.90
39017;DHT22;24784;45.582;5.276;2022-12-18T11:13:26;4.20;99.90
39017;DHT22;24784;45.582;5.276;2022-12-18T11:15:53;4.20;99.90
39017;DHT22;24784;45.582;5.276;2022-12-18T11:20:58;4.40;99.90
39017;DHT22;24784;45.582;5.276;2022-12-18T11:23:25;4.40;99.90
39017;DHT22;24784;45.582;5.276;2022-12-18T11:25:54;4.60;99.90
39017;DHT22;24784;45.582;5.276;2022-12-18T11:31:23;4.70;99.90
39017;DHT22;24784;45.582;5.276;2022-12-18T11:34:00;4.80;99.90
39017;DHT22;24784;45.582;5.276;2022-12-18T11:36:32;5.00;99.90
39017;DHT22;24784;45.582;5.276;2022-12-18T11:39:03;5.00;99.90
39017;DHT22;24784;45.582;5.276;2022-12-18T11:41:42;5.10;99.90
39017;DHT22;24784;45.582;5.276;2022-12-18T11:44:46;5.30;99.90
39017;DHT22;24784;45.582;5.276;2022-12-18T11:50:35;5.50;99.90
39017;DHT22;24784;45.582;5.276;2022-12-18T11:53:11;5.70;99.90
39017;DHT22;24784;45.582;5.276;2022-12-18T12:01:53;6.10;99.90
39017;DHT22;24784;45.582;5.276;2022-12-18T12:10:11;6.20;99.90
39017;DHT22;24784;45.582;5.276;2022-12-18T12:12:54;6.20;99.90
39017;DHT22;24784;45.582;5.276;2022-12-18T12:39:42;7.00;99.90
39017;DHT22;24784;45.582;5.276;2022-12-18T12:42:38;7.00;99.90
39017;DHT22;24784;45.582;5.276;2022-12-18T12:45:34;7.00;99.90
39017;DHT22;24784;45.582;5.276;2022-12-18T12:48:02;7.30;99.90
39017;DHT22;24784;45.582;5.276;2022-12-18T12:50:33;7.40;99.90
39017;DHT22;24784;45.582;5.276;2022-12-18T12:53:01;7.60;99.90
39017;DHT22;24784;45.582;5.276;2022-12-18T12:55:31;7.50;99.90
39017;DHT22;24784;45.582;5.276;2022-12-18T12:58:05;7.30;99.90
39017;DHT22;24784;45.582;5.276;2022-12-18T13:03:43;7.50;99.90
39017;DHT22;24784;45.582;5.276;2022-12-18T13:09:32;7.50;99.90
39017;DHT22;24784;45.582;5.276;2022-12-18T13:12:04;7.60;99.90
39017;DHT22;24784;45.582;5.276;2022-12-18T13:14:49;7.60;99.90
39017;DHT22;24784;45.582;5.276;2022-12-18T13:19:43;7.80;99.90
39017;DHT22;24784;45.582;5.276;2022-12-18T13:22:22;7.80;99.90
39017;DHT22;24784;45.582;5.276;2022-12-18T13:24:49;7.90;99.90
39017;DHT22;24784;45.582;5.276;2022-12-18T13:38:36;7.80;99.90
39017;DHT22;24784;45.582;5.276;2022-12-18T13:46:04;7.90;99.90
39017;DHT22;24784;45.582;5.276;2022-12-18T13:48:36;8.00;99.90
39017;DHT22;24784;45.582;5.276;2022-12-18T13:51:06;8.20;99.90
39017;DHT22;24784;45.582;5.276;2022-12-18T13:53:46;8.00;99.90
39017;DHT22;24784;45.582;5.276;2022-12-18T13:56:26;8.20;99.90
39017;DHT22;24784;45.582;5.276;2022-12-18T13:59:12;7.90;99.90
39017;DHT22;24784;45.582;5.276;2022-12-18T14:01:43;7.80;99.90
39017;DHT22;24784;45.582;5.276;2022-12-18T14:04:18;7.80;99.90
39017;DHT22;24784;45.582;5.276;2022-12-18T14:06:45;7.70;99.90
39017;DHT22;24784;45.582;5.276;2022-12-18T14:09:17;7.90;99.90
39017;DHT22;24784;45.582;5.276;2022-12-18T14:11:49;7.80;99.90
39017;DHT22;24784;45.582;5.276;2022-12-18T14:14:19;7.60;99.90
39017;DHT22;24784;45.582;5.276;2022-12-18T14:16:46;7.70;99.90
39017;DHT22;24784;45.582;5.276;2022-12-18T14:19:16;7.60;99.90
39017;DHT22;24784;45.582;5.276;2022-12-18T14:21:47;7.50;99.90
39017;DHT22;24784;45.582;5.276;2022-12-18T14:24:21;7.50;99.90
39017;DHT22;24784;45.582;5.276;2022-12-18T14:26:50;7.50;99.90
39017;DHT22;24784;45.582;5.276;2022-12-18T14:31:45;7.30;99.90
39017;DHT22;24784;45.582;5.276;2022-12-18T14:34:17;7.20;99.90
39017;DHT22;24784;45.582;5.276;2022-12-18T14:36:52;7.30;99.90
39017;DHT22;24784;45.582;5.276;2022-12-18T14:39:18;7.30;99.90
39017;DHT22;24784;45.582;5.276;2022-12-18T14:41:44;7.40;99.90
39017;DHT22;24784;45.582;5.276;2022-12-18T14:44:12;7.40;99.90
39017;DHT22;24784;45.582;5.276;2022-12-18T14:46:39;7.40;99.90
39017;DHT22;24784;45.582;5.276;2022-12-18T14:51:59;7.00;99.90
39017;DHT22;24784;45.582;5.276;2022-12-18T14:54:26;6.90;99.90
39017;DHT22;24784;45.582;5.276;2022-12-18T14:57:25;6.90;99.90
39017;DHT22;24784;45.582;5.276;2022-12-18T15:00:07;6.90;99.90
39017;DHT22;24784;45.582;5.276;2022-12-18T15:02:35;6.80;99.90
39017;DHT22;24784;45.582;5.276;2022-12-18T15:05:25;6.90;99.90
39017;DHT22;24784;45.582;5.276;2022-12-18T15:07:52;6.70;99.90
39017;DHT22;24784;45.582;5.276;2022-12-18T15:10:30;6.60;99.90
39017;DHT22;24784;45.582;5.276;2022-12-18T15:18:04;6.40;99.90
39017;DHT22;24784;45.582;5.276;2022-12-18T15:20:33;6.30;99.90
39017;DHT22;24784;45.582;5.276;2022-12-18T15:23:12;6.20;99.90
39017;DHT22;24784;45.582;5.276;2022-12-18T15:25:38;6.20;99.90
39017;DHT22;24784;45.582;5.276;2022-12-18T15:28:17;6.20;99.90
39017;DHT22;24784;45.582;5.276;2022-12-18T15:31:04;6.10;99.90
39017;DHT22;24784;45.582;5.276;2022-12-18T15:33:34;6.10;99.90
39017;DHT22;24784;45.582;5.276;2022-12-18T15:36:03;6.20;99.90
39017;DHT22;24784;45.582;5.276;2022-12-18T15:38:29;6.20;99.90
39017;DHT22;24784;45.582;5.276;2022-12-18T15:40:55;6.30;99.90
39017;DHT22;24784;45.582;5.276;2022-12-18T15:43:23;6.30;99.90
39017;DHT22;24784;45.582;5.276;2022-12-18T15:46:06;6.40;99.90
39017;DHT22;24784;45.582;5.276;2022-12-18T15:48:34;6.40;99.90
39017;DHT22;24784;45.582;5.276;2022-12-18T15:51:01;6.30;99.90
39017;DHT22;24784;45.582;5.276;2022-12-18T15:53:33;6.20;99.90
39017;DHT22;24784;45.582;5.276;2022-12-18T15:55:59;6.30;99.90
39017;DHT22;24784;45.582;5.276;2022-12-18T15:58:43;6.20;99.90
39017;DHT22;24784;45.582;5.276;2022-12-18T16:01:10;6.10;99.90
39017;DHT22;24784;45.582;5.276;2022-12-18T16:03:37;6.20;99.90
39017;DHT22;24784;45.582;5.276;2022-12-18T16:06:02;6.00;99.90
39017;DHT22;24784;45.582;5.276;2022-12-18T16:08:29;6.10;99.90
39017;DHT22;24784;45.582;5.276;2022-12-18T16:10:56;6.10;99.90
39017;DHT22;24784;45.582;5.276;2022-12-18T16:13:23;6.20;99.90
39017;DHT22;24784;45.582;5.276;2022-12-18T16:15:48;6.00;99.90
39017;DHT22;24784;45.582;5.276;2022-12-18T16:18:14;6.20;99.90
39017;DHT22;24784;45.582;5.276;2022-12-18T16:20:40;6.50;99.90
39017;DHT22;24784;45.582;5.276;2022-12-18T16:23:06;6.60;99.90
39017;DHT22;24784;45.582;5.276;2022-12-18T16:25:32;6.60;99.90
39017;DHT22;24784;45.582;5.276;2022-12-18T16:27:58;6.60;99.90
39017;DHT22;24784;45.582;5.276;2022-12-18T16:30:26;6.60;99.90
39017;DHT22;24784;45.582;5.276;2022-12-18T16:32:53;6.50;99.90
39017;DHT22;24784;45.582;5.276;2022-12-18T16:35:20;6.40;99.90
39017;DHT22;24784;45.582;5.276;2022-12-18T16:37:46;6.60;99.90
39017;DHT22;24784;45.582;5.276;2022-12-18T16:40:14;6.50;99.90
39017;DHT22;24784;45.582;5.276;2022-12-18T16:42:41;6.50;99.90
39017;DHT22;24784;45.582;5.276;2022-12-18T16:45:10;6.60;99.90
39017;DHT22;24784;45.582;5.276;2022-12-18T16:47:36;6.50;99.90
39017;DHT22;24784;45.582;5.276;2022-12-18T16:50:03;6.40;99.90
39017;DHT22;24784;45.582;5.276;2022-12-18T16:52:29;6.40;99.90
39017;DHT22;24784;45.582;5.276;2022-12-18T16:54:55;6.40;99.90
39017;DHT22;24784;45.582;5.276;2022-12-18T16:57:22;6.30;99.90
39017;DHT22;24784;45.582;5.276;2022-12-18T16:59:48;6.20;99.90
39017;DHT22;24784;45.582;5.276;2022-12-18T17:02:16;6.10;99.90
39017;DHT22;24784;45.582;5.276;2022-12-18T17:04:43;6.00;99.90
39017;DHT22;24784;45.582;5.276;2022-12-18T17:07:09;6.00;99.90
39017;DHT22;24784;45.582;5.276;2022-12-18T17:09:35;5.90;99.90
39017;DHT22;24784;45.582;5.276;2022-12-18T17:12:01;5.90;99.90
39017;DHT22;24784;45.582;5.276;2022-12-18T17:14:26;5.90;99.90
39017;DHT22;24784;45.582;5.276;2022-12-18T17:16:53;5.80;99.90
39017;DHT22;24784;45.582;5.276;2022-12-18T17:19:19;5.70;99.90
39017;DHT22;24784;45.582;5.276;2022-12-18T17:21:48;5.90;99.90
39017;DHT22;24784;45.582;5.276;2022-12-18T17:24:14;5.90;99.90
39017;DHT22;24784;45.582;5.276;2022-12-18T17:26:40;5.80;99.90
39017;DHT22;24784;45.582;5.276;2022-12-18T17:29:06;5.80;99.90
39017;DHT22;24784;45.582;5.276;2022-12-18T17:31:33;5.80;99.90
39017;DHT22;24784;45.582;5.276;2022-12-18T17:34:00;5.80;99.90
39017;DHT22;24784;45.582;5.276;2022-12-18T17:36:27;5.90;99.90
39017;DHT22;24784;45.582;5.276;2022-12-18T17:38:55;5.80;99.90
39017;DHT22;24784;45.582;5.276;2022-12-18T17:41:22;5.80;99.90
39017;DHT22;24784;45.582;5.276;2022-12-18T17:43:59;5.60;99.90
39017;DHT22;24784;45.582;5.276;2022-12-18T17:46:27;5.50;99.90
39017;DHT22;24784;45.582;5.276;2022-12-18T17:48:55;5.50;99.90
39017;DHT22;24784;45.582;5.276;2022-12-18T17:51:21;5.40;99.90
39017;DHT22;24784;45.582;5.276;2022-12-18T17:53:47;5.40;99.90
39017;DHT22;24784;45.582;5.276;2022-12-18T17:56:14;5.30;99.90
39017;DHT22;24784;45.582;5.276;2022-12-18T17:58:41;5.20;99.90
39017;DHT22;24784;45.582;5.276;2022-12-18T18:01:08;5.30;99.90
39017;DHT22;24784;45.582;5.276;2022-12-18T18:03:34;5.40;99.90
39017;DHT22;24784;45.582;5.276;2022-12-18T18:06:02;5.20;99.90
39017;DHT22;24784;45.582;5.276;2022-12-18T18:08:28;5.30;99.90